createdAt,value
2018-07-25T00:00:03.477Z,23
2018-07-25T00:00:15.889Z,23
2018-07-25T00:00:28.404Z,23
2018-07-25T00:00:40.925Z,22.9444444444
2018-07-25T00:00:53.381Z,23
2018-07-25T00:01:05.799Z,22.9444444444
2018-07-25T00:01:18.335Z,22.9444444444
2018-07-25T00:01:30.723Z,23
2018-07-25T00:01:43.122Z,22.9444444444
2018-07-25T00:01:55.522Z,22.9444444444
2018-07-25T00:02:08.020Z,22.9444444444
2018-07-25T00:02:20.437Z,22.9444444444
2018-07-25T00:02:32.826Z,22.9444444444
2018-07-25T00:02:45.215Z,22.9444444444
2018-07-25T00:02:57.608Z,22.9444444444
2018-07-25T00:03:10.001Z,22.9444444444
2018-07-25T00:03:22.403Z,22.9444444444
2018-07-25T00:03:34.810Z,22.9444444444
2018-07-25T00:03:47.199Z,22.9444444444
2018-07-25T00:03:59.616Z,22.9444444444
2018-07-25T00:04:12.023Z,22.9444444444
2018-07-25T00:04:24.423Z,22.9444444444
2018-07-25T00:04:36.821Z,22.8888888889
2018-07-25T00:04:49.220Z,22.9444444444
2018-07-25T00:05:01.600Z,22.9444444444
2018-07-25T00:05:14.054Z,22.9444444444
2018-07-25T00:05:26.454Z,22.8888888889
2018-07-25T00:05:38.858Z,22.8888888889
2018-07-25T00:05:51.244Z,22.8888888889
2018-07-25T00:06:03.640Z,22.8888888889
2018-07-25T00:06:16.020Z,22.8888888889
2018-07-25T00:06:28.421Z,22.8888888889
2018-07-25T00:06:40.811Z,22.8888888889
2018-07-25T00:06:53.187Z,22.8888888889
2018-07-25T00:07:05.668Z,22.8888888889
2018-07-25T00:07:18.065Z,22.8888888889
2018-07-25T00:07:30.453Z,22.8888888889
2018-07-25T00:07:42.939Z,22.8888888889
2018-07-25T00:07:55.333Z,22.8888888889
2018-07-25T00:08:07.763Z,22.8888888889
2018-07-25T00:08:20.145Z,22.8888888889
2018-07-25T00:08:32.805Z,22.8888888889
2018-07-25T00:08:45.208Z,22.8888888889
2018-07-25T00:08:57.603Z,22.8888888889
2018-07-25T00:09:09.995Z,22.8888888889
2018-07-25T00:09:22.392Z,22.8888888889
2018-07-25T00:09:34.782Z,22.8888888889
2018-07-25T00:09:47.190Z,22.8888888889
2018-07-25T00:09:59.576Z,22.8333333333
2018-07-25T00:10:11.956Z,22.8888888889
2018-07-25T00:10:24.346Z,22.8888888889
2018-07-25T00:10:36.731Z,22.8333333333
2018-07-25T00:10:49.120Z,22.8888888889
2018-07-25T00:11:01.520Z,22.8333333333
2018-07-25T00:11:13.927Z,22.8333333333
2018-07-25T00:11:26.314Z,22.8333333333
2018-07-25T00:11:38.712Z,22.8333333333
2018-07-25T00:11:51.113Z,22.8333333333
2018-07-25T00:12:03.533Z,22.8333333333
2018-07-25T00:12:15.928Z,22.8333333333
2018-07-25T00:12:28.328Z,22.8333333333
2018-07-25T00:12:40.711Z,22.8333333333
2018-07-25T00:12:53.101Z,22.8333333333
2018-07-25T00:13:05.490Z,22.8333333333
2018-07-25T00:13:17.892Z,22.8333333333
2018-07-25T00:13:30.287Z,22.8333333333
2018-07-25T00:13:42.706Z,22.8333333333
2018-07-25T00:13:55.282Z,22.8333333333
2018-07-25T00:14:07.681Z,22.8333333333
2018-07-25T00:14:20.074Z,22.8333333333
2018-07-25T00:14:32.504Z,22.7777777778
2018-07-25T00:14:44.902Z,22.8333333333
2018-07-25T00:14:57.307Z,22.8333333333
2018-07-25T00:15:09.758Z,22.7777777778
2018-07-25T00:15:22.151Z,22.7777777778
2018-07-25T00:15:34.552Z,22.7777777778
2018-07-25T00:15:46.936Z,22.8333333333
2018-07-25T00:15:59.328Z,22.8333333333
2018-07-25T00:16:11.737Z,22.7777777778
2018-07-25T00:16:24.143Z,22.7777777778
2018-07-25T00:16:36.540Z,22.7777777778
2018-07-25T00:16:48.928Z,22.7777777778
2018-07-25T00:17:01.318Z,22.7777777778
2018-07-25T00:17:13.729Z,22.7777777778
2018-07-25T00:17:26.126Z,22.7777777778
2018-07-25T00:17:38.510Z,22.7777777778
2018-07-25T00:17:51.044Z,22.7777777778
2018-07-25T00:18:03.445Z,22.7777777778
2018-07-25T00:18:15.886Z,22.7777777778
2018-07-25T00:18:28.274Z,22.7777777778
2018-07-25T00:18:40.648Z,22.7222222222
2018-07-25T00:18:53.025Z,22.7222222222
2018-07-25T00:19:05.661Z,22.7222222222
2018-07-25T00:19:18.104Z,22.7222222222
2018-07-25T00:19:30.489Z,22.7222222222
2018-07-25T00:19:42.946Z,22.7222222222
2018-07-25T00:19:55.376Z,22.7222222222
2018-07-25T00:20:07.777Z,22.7222222222
2018-07-25T00:20:20.192Z,22.6666666667
2018-07-25T00:20:32.709Z,22.7222222222
2018-07-25T00:20:45.090Z,22.7222222222
2018-07-25T00:20:57.476Z,22.6666666667
2018-07-25T00:21:09.868Z,22.6666666667
2018-07-25T00:21:22.406Z,22.6666666667
2018-07-25T00:21:35.791Z,22.6666666667
2018-07-25T00:21:48.264Z,22.6666666667
2018-07-25T00:22:00.655Z,22.6666666667
2018-07-25T00:22:13.051Z,22.6666666667
2018-07-25T00:22:25.445Z,22.6666666667
2018-07-25T00:22:37.844Z,22.6111111111
2018-07-25T00:22:50.233Z,22.6666666667
2018-07-25T00:23:02.657Z,22.6111111111
2018-07-25T00:23:15.065Z,22.6111111111
2018-07-25T00:23:27.455Z,22.6111111111
2018-07-25T00:23:39.995Z,22.6111111111
2018-07-25T00:23:52.385Z,22.6111111111
2018-07-25T00:24:04.787Z,22.6111111111
2018-07-25T00:24:17.181Z,22.6111111111
2018-07-25T00:24:29.574Z,22.5555555556
2018-07-25T00:24:41.977Z,22.6111111111
2018-07-25T00:24:54.378Z,22.5555555556
2018-07-25T00:25:06.832Z,22.5555555556
2018-07-25T00:25:19.220Z,22.5555555556
2018-07-25T00:25:31.599Z,22.5555555556
2018-07-25T00:25:44.026Z,22.5555555556
2018-07-25T00:25:56.425Z,22.5555555556
2018-07-25T00:26:08.817Z,22.5555555556
2018-07-25T00:26:21.213Z,22.5555555556
2018-07-25T00:26:33.639Z,22.5
2018-07-25T00:26:46.046Z,22.5
2018-07-25T00:26:58.439Z,22.5
2018-07-25T00:27:10.848Z,22.5
2018-07-25T00:27:23.235Z,22.5
2018-07-25T00:27:35.638Z,22.5
2018-07-25T00:27:48.024Z,22.5
2018-07-25T00:28:00.429Z,22.4444444444
2018-07-25T00:28:12.825Z,22.5
2018-07-25T00:28:25.210Z,22.4444444444
2018-07-25T00:28:37.630Z,22.5
2018-07-25T00:28:45.319Z,22.5
2018-07-25T00:28:57.734Z,22.4444444444
2018-07-25T00:29:10.144Z,22.4444444444
2018-07-25T00:29:22.541Z,22.4444444444
2018-07-25T00:29:34.933Z,22.4444444444
2018-07-25T00:29:47.329Z,22.4444444444
2018-07-25T00:29:59.716Z,22.4444444444
2018-07-25T00:30:12.125Z,22.4444444444
2018-07-25T00:30:24.692Z,22.4444444444
2018-07-25T00:30:37.076Z,22.3888888889
2018-07-25T00:30:49.482Z,22.4444444444
2018-07-25T00:31:01.880Z,22.3888888889
2018-07-25T00:31:14.288Z,22.3888888889
2018-07-25T00:31:26.691Z,22.3888888889
2018-07-25T00:31:39.073Z,22.3333333333
2018-07-25T00:31:51.467Z,22.3333333333
2018-07-25T00:32:04.053Z,22.3333333333
2018-07-25T00:32:16.453Z,22.3888888889
2018-07-25T00:32:28.849Z,22.3333333333
2018-07-25T00:32:41.231Z,22.3333333333
2018-07-25T00:32:53.634Z,22.3333333333
2018-07-25T00:33:06.038Z,22.3333333333
2018-07-25T00:33:18.435Z,22.3333333333
2018-07-25T00:33:30.816Z,22.3333333333
2018-07-25T00:33:43.203Z,22.3333333333
2018-07-25T00:33:55.611Z,22.2777777778
2018-07-25T00:34:08.014Z,22.3333333333
2018-07-25T00:34:20.406Z,22.2777777778
2018-07-25T00:34:32.808Z,22.3333333333
2018-07-25T00:34:45.201Z,22.2777777778
2018-07-25T00:34:57.598Z,22.2777777778
2018-07-25T00:35:09.998Z,22.2777777778
2018-07-25T00:35:22.390Z,22.2777777778
2018-07-25T00:35:34.797Z,22.2777777778
2018-07-25T00:35:47.176Z,22.2777777778
2018-07-25T00:35:59.575Z,22.2777777778
2018-07-25T00:36:12.307Z,22.2222222222
2018-07-25T00:36:25.593Z,22.2222222222
2018-07-25T00:36:38.039Z,22.2222222222
2018-07-25T00:36:50.435Z,22.2222222222
2018-07-25T00:37:02.821Z,22.2222222222
2018-07-25T00:37:15.215Z,22.2222222222
2018-07-25T00:37:27.606Z,22.2222222222
2018-07-25T00:37:40.018Z,22.1666666667
2018-07-25T00:37:52.420Z,22.1666666667
2018-07-25T00:38:04.813Z,22.1666666667
2018-07-25T00:38:17.216Z,22.1666666667
2018-07-25T00:38:29.602Z,22.1666666667
2018-07-25T00:38:41.990Z,22.1666666667
2018-07-25T00:38:54.395Z,22.1666666667
2018-07-25T00:39:06.784Z,22.1666666667
2018-07-25T00:39:19.200Z,22.1666666667
2018-07-25T00:39:31.606Z,22.1666666667
2018-07-25T00:39:44.000Z,22.1666666667
2018-07-25T00:39:56.383Z,22.1111111111
2018-07-25T00:40:08.778Z,22.1666666667
2018-07-25T00:40:21.170Z,22.1666666667
2018-07-25T00:40:33.573Z,22.1111111111
2018-07-25T00:40:45.970Z,22.1111111111
2018-07-25T00:40:58.354Z,22.1111111111
2018-07-25T00:41:10.794Z,22.1111111111
2018-07-25T00:41:23.184Z,22.1111111111
2018-07-25T00:41:35.572Z,22.1111111111
2018-07-25T00:41:47.976Z,22.0555555556
2018-07-25T00:42:00.370Z,22.0555555556
2018-07-25T00:42:12.768Z,22.0555555556
2018-07-25T00:42:25.157Z,22.0555555556
2018-07-25T00:42:37.552Z,22.0555555556
2018-07-25T00:42:49.943Z,22
2018-07-25T00:43:02.338Z,22.0555555556
2018-07-25T00:43:14.765Z,22.0555555556
2018-07-25T00:43:27.158Z,22.0555555556
2018-07-25T00:43:39.553Z,22.0555555556
2018-07-25T00:43:51.950Z,22
2018-07-25T00:44:04.334Z,22
2018-07-25T00:44:16.713Z,22
2018-07-25T00:44:29.192Z,22
2018-07-25T00:44:41.579Z,22
2018-07-25T00:44:53.960Z,22
2018-07-25T00:45:06.363Z,22
2018-07-25T00:45:18.763Z,22
2018-07-25T00:45:31.168Z,22
2018-07-25T00:45:43.550Z,22
2018-07-25T00:45:55.933Z,22
2018-07-25T00:46:08.383Z,21.9444444444
2018-07-25T00:46:20.771Z,22
2018-07-25T00:46:33.157Z,21.9444444444
2018-07-25T00:46:45.547Z,21.9444444444
2018-07-25T00:46:57.942Z,21.9444444444
2018-07-25T00:47:10.326Z,21.9444444444
2018-07-25T00:47:22.707Z,21.9444444444
2018-07-25T00:47:35.115Z,21.9444444444
2018-07-25T00:47:47.504Z,21.9444444444
2018-07-25T00:47:59.897Z,21.9444444444
2018-07-25T00:48:12.294Z,21.9444444444
2018-07-25T00:48:24.688Z,21.9444444444
2018-07-25T00:48:37.092Z,21.9444444444
2018-07-25T00:48:49.648Z,21.9444444444
2018-07-25T00:49:02.050Z,21.9444444444
2018-07-25T00:49:14.442Z,21.8888888889
2018-07-25T00:49:26.836Z,21.9444444444
2018-07-25T00:49:39.227Z,21.8888888889
2018-07-25T00:49:51.827Z,21.8888888889
2018-07-25T00:50:04.233Z,21.8888888889
2018-07-25T00:50:16.626Z,21.8888888889
2018-07-25T00:50:29.013Z,21.8888888889
2018-07-25T00:50:41.426Z,21.8888888889
2018-07-25T00:50:53.806Z,21.8888888889
2018-07-25T00:51:06.210Z,21.8888888889
2018-07-25T00:51:18.604Z,21.8333333333
2018-07-25T00:51:30.986Z,21.8888888889
2018-07-25T00:51:43.380Z,21.8333333333
2018-07-25T00:51:55.838Z,21.8333333333
2018-07-25T00:52:08.288Z,21.8333333333
2018-07-25T00:52:20.686Z,21.8333333333
2018-07-25T00:52:33.128Z,21.8333333333
2018-07-25T00:52:45.533Z,21.8333333333
2018-07-25T00:52:57.922Z,21.8333333333
2018-07-25T00:53:10.338Z,21.8333333333
2018-07-25T00:53:22.743Z,21.8333333333
2018-07-25T00:53:35.160Z,21.8333333333
2018-07-25T00:53:47.557Z,21.8333333333
2018-07-25T00:53:59.959Z,21.7777777778
2018-07-25T00:54:12.358Z,21.7777777778
2018-07-25T00:54:24.744Z,21.8333333333
2018-07-25T00:54:37.134Z,21.7777777778
2018-07-25T00:54:49.720Z,21.7777777778
2018-07-25T00:55:02.372Z,21.7777777778
2018-07-25T00:55:14.770Z,21.7777777778
2018-07-25T00:55:27.758Z,21.7777777778
2018-07-25T00:55:40.364Z,21.7777777778
2018-07-25T00:55:53.239Z,21.7777777778
2018-07-25T00:56:05.648Z,21.7777777778
2018-07-25T00:56:18.041Z,21.7777777778
2018-07-25T00:56:30.430Z,21.7777777778
2018-07-25T00:56:42.824Z,21.7777777778
2018-07-25T00:56:55.230Z,21.7777777778
2018-07-25T00:57:07.639Z,21.7777777778
2018-07-25T00:57:20.031Z,21.7222222222
2018-07-25T00:57:32.413Z,21.7777777778
2018-07-25T00:57:44.794Z,21.7222222222
2018-07-25T00:57:57.178Z,21.7222222222
2018-07-25T00:58:09.616Z,21.7222222222
2018-07-25T00:58:22.007Z,21.7222222222
2018-07-25T00:58:34.390Z,21.7222222222
2018-07-25T00:58:46.784Z,21.7222222222
2018-07-25T00:58:59.163Z,21.7777777778
2018-07-25T00:59:11.559Z,21.7222222222
2018-07-25T00:59:23.935Z,21.7222222222
2018-07-25T00:59:36.334Z,21.7222222222
2018-07-25T00:59:48.716Z,21.7222222222
2018-07-25T01:00:01.336Z,21.7222222222
2018-07-25T01:00:13.773Z,21.7222222222
2018-07-25T01:00:26.196Z,21.7222222222
2018-07-25T01:00:38.687Z,21.7222222222
2018-07-25T01:00:51.085Z,21.7222222222
2018-07-25T01:01:03.485Z,21.7222222222
2018-07-25T01:01:16.026Z,21.6666666667
2018-07-25T01:01:28.430Z,21.7222222222
2018-07-25T01:01:40.841Z,21.7222222222
2018-07-25T01:01:53.242Z,21.7222222222
2018-07-25T01:02:05.719Z,21.7222222222
2018-07-25T01:02:18.124Z,21.6666666667
2018-07-25T01:02:30.532Z,21.7222222222
2018-07-25T01:02:42.942Z,21.7222222222
2018-07-25T01:02:55.357Z,21.6666666667
2018-07-25T01:03:07.757Z,21.7222222222
2018-07-25T01:03:20.180Z,21.7222222222
2018-07-25T01:03:32.573Z,21.7222222222
2018-07-25T01:03:44.968Z,21.7222222222
2018-07-25T01:03:57.392Z,21.7222222222
2018-07-25T01:04:09.802Z,21.7222222222
2018-07-25T01:04:22.198Z,21.7222222222
2018-07-25T01:04:34.601Z,21.7222222222
2018-07-25T01:04:47.009Z,21.7222222222
2018-07-25T01:04:59.537Z,21.7222222222
2018-07-25T01:05:11.933Z,21.7222222222
2018-07-25T01:05:24.312Z,21.7222222222
2018-07-25T01:05:36.718Z,21.7222222222
2018-07-25T01:05:49.105Z,21.7222222222
2018-07-25T01:06:01.498Z,21.7222222222
2018-07-25T01:06:13.940Z,21.7222222222
2018-07-25T01:06:26.315Z,21.7222222222
2018-07-25T01:06:38.715Z,21.7222222222
2018-07-25T01:06:51.104Z,21.7222222222
2018-07-25T01:07:03.504Z,21.7222222222
2018-07-25T01:07:15.898Z,21.7222222222
2018-07-25T01:07:28.289Z,21.7222222222
2018-07-25T01:07:40.704Z,21.7222222222
2018-07-25T01:07:53.203Z,21.7222222222
2018-07-25T01:08:05.602Z,21.7222222222
2018-07-25T01:08:17.993Z,21.7222222222
2018-07-25T01:08:30.436Z,21.7222222222
2018-07-25T01:08:43.029Z,21.7222222222
2018-07-25T01:08:55.418Z,21.7222222222
2018-07-25T01:09:07.821Z,21.7222222222
2018-07-25T01:09:20.218Z,21.7222222222
2018-07-25T01:09:32.630Z,21.7222222222
2018-07-25T01:09:45.018Z,21.7777777778
2018-07-25T01:09:57.407Z,21.7777777778
2018-07-25T01:10:09.786Z,21.7777777778
2018-07-25T01:10:22.200Z,21.7777777778
2018-07-25T01:10:34.580Z,21.7222222222
2018-07-25T01:10:46.952Z,21.7222222222
2018-07-25T01:10:59.332Z,21.7777777778
2018-07-25T01:11:11.722Z,21.7777777778
2018-07-25T01:11:24.160Z,21.7222222222
2018-07-25T01:11:36.557Z,21.7222222222
2018-07-25T01:11:48.960Z,21.7777777778
2018-07-25T01:12:01.400Z,21.7777777778
2018-07-25T01:12:13.796Z,21.7222222222
2018-07-25T01:12:26.182Z,21.7222222222
2018-07-25T01:12:38.578Z,21.7777777778
2018-07-25T01:12:50.976Z,21.7222222222
2018-07-25T01:13:03.376Z,21.7222222222
2018-07-25T01:13:15.788Z,21.7222222222
2018-07-25T01:13:28.196Z,21.7777777778
2018-07-25T01:13:40.687Z,21.7222222222
2018-07-25T01:13:53.081Z,21.7222222222
2018-07-25T01:14:05.594Z,21.7222222222
2018-07-25T01:14:17.999Z,21.7222222222
2018-07-25T01:14:30.401Z,21.7222222222
2018-07-25T01:14:42.819Z,21.7222222222
2018-07-25T01:14:55.204Z,21.7222222222
2018-07-25T01:15:07.626Z,21.7222222222
2018-07-25T01:15:20.014Z,21.7222222222
2018-07-25T01:15:32.416Z,21.7222222222
2018-07-25T01:15:44.814Z,21.7222222222
2018-07-25T01:15:57.220Z,21.7222222222
2018-07-25T01:16:09.602Z,21.7222222222
2018-07-25T01:16:21.985Z,21.7222222222
2018-07-25T01:16:34.420Z,21.7222222222
2018-07-25T01:16:46.819Z,21.7222222222
2018-07-25T01:16:59.274Z,21.7222222222
2018-07-25T01:17:11.666Z,21.6666666667
2018-07-25T01:17:24.061Z,21.6666666667
2018-07-25T01:17:36.461Z,21.6666666667
2018-07-25T01:17:49.176Z,21.6666666667
2018-07-25T01:18:01.632Z,21.6666666667
2018-07-25T01:18:14.026Z,21.7222222222
2018-07-25T01:18:26.429Z,21.7222222222
2018-07-25T01:18:38.825Z,21.6666666667
2018-07-25T01:18:51.226Z,21.6666666667
2018-07-25T01:19:03.724Z,21.6666666667
2018-07-25T01:19:16.114Z,21.6666666667
2018-07-25T01:19:28.526Z,21.6666666667
2018-07-25T01:19:40.914Z,21.6666666667
2018-07-25T01:19:53.338Z,21.6666666667
2018-07-25T01:20:05.750Z,21.6666666667
2018-07-25T01:20:18.142Z,21.6666666667
2018-07-25T01:20:30.525Z,21.6666666667
2018-07-25T01:20:42.917Z,21.6666666667
2018-07-25T01:20:55.353Z,21.6666666667
2018-07-25T01:21:08.055Z,21.6111111111
2018-07-25T01:21:20.440Z,21.6111111111
2018-07-25T01:21:32.930Z,21.6111111111
2018-07-25T01:21:45.308Z,21.6111111111
2018-07-25T01:21:57.704Z,21.6111111111
2018-07-25T01:22:10.095Z,21.6111111111
2018-07-25T01:22:22.478Z,21.6111111111
2018-07-25T01:22:34.913Z,21.6111111111
2018-07-25T01:22:47.312Z,21.6111111111
2018-07-25T01:22:59.708Z,21.6111111111
2018-07-25T01:23:12.089Z,21.6111111111
2018-07-25T01:23:24.494Z,21.6111111111
2018-07-25T01:23:36.883Z,21.5555555556
2018-07-25T01:23:49.313Z,21.5555555556
2018-07-25T01:24:01.704Z,21.6111111111
2018-07-25T01:24:14.110Z,21.5555555556
2018-07-25T01:24:26.511Z,21.6111111111
2018-07-25T01:24:38.895Z,21.5555555556
2018-07-25T01:24:51.368Z,21.5555555556
2018-07-25T01:25:03.767Z,21.6111111111
2018-07-25T01:25:16.159Z,21.6111111111
2018-07-25T01:25:28.561Z,21.6111111111
2018-07-25T01:25:41.001Z,21.5555555556
2018-07-25T01:25:53.405Z,21.5555555556
2018-07-25T01:26:05.869Z,21.5555555556
2018-07-25T01:26:18.264Z,21.5555555556
2018-07-25T01:26:30.794Z,21.5555555556
2018-07-25T01:26:43.197Z,21.5555555556
2018-07-25T01:26:55.602Z,21.5555555556
2018-07-25T01:27:07.994Z,21.6111111111
2018-07-25T01:27:20.381Z,21.5555555556
2018-07-25T01:27:32.773Z,21.5555555556
2018-07-25T01:27:45.169Z,21.5555555556
2018-07-25T01:27:57.565Z,21.5555555556
2018-07-25T01:28:09.943Z,21.5555555556
2018-07-25T01:28:22.329Z,21.5555555556
2018-07-25T01:28:34.704Z,21.5555555556
2018-07-25T01:28:47.120Z,21.5555555556
2018-07-25T01:28:59.506Z,21.5555555556
2018-07-25T01:29:11.893Z,21.5555555556
2018-07-25T01:29:24.306Z,21.5555555556
2018-07-25T01:29:36.698Z,21.5555555556
2018-07-25T01:29:49.078Z,21.5555555556
2018-07-25T01:30:01.473Z,21.5555555556
2018-07-25T01:30:13.913Z,21.5555555556
2018-07-25T01:30:26.450Z,21.5555555556
2018-07-25T01:30:38.825Z,21.5555555556
2018-07-25T01:30:51.220Z,21.5555555556
2018-07-25T01:31:03.622Z,21.5555555556
2018-07-25T01:31:16.030Z,21.5555555556
2018-07-25T01:31:28.451Z,21.5555555556
2018-07-25T01:31:40.849Z,21.5555555556
2018-07-25T01:31:53.257Z,21.5555555556
2018-07-25T01:32:05.780Z,21.5555555556
2018-07-25T01:32:18.176Z,21.5555555556
2018-07-25T01:32:30.568Z,21.5555555556
2018-07-25T01:32:42.958Z,21.5555555556
2018-07-25T01:32:55.407Z,21.5555555556
2018-07-25T01:33:07.801Z,21.5555555556
2018-07-25T01:33:20.188Z,21.5555555556
2018-07-25T01:33:32.627Z,21.5555555556
2018-07-25T01:33:45.066Z,21.5555555556
2018-07-25T01:33:57.447Z,21.5555555556
2018-07-25T01:34:09.853Z,21.5555555556
2018-07-25T01:34:22.217Z,21.5555555556
2018-07-25T01:34:34.610Z,21.5555555556
2018-07-25T01:34:46.998Z,21.5555555556
2018-07-25T01:34:59.442Z,21.5555555556
2018-07-25T01:35:11.832Z,21.5555555556
2018-07-25T01:35:24.222Z,21.5555555556
2018-07-25T01:35:36.619Z,21.5555555556
2018-07-25T01:35:49.017Z,21.5555555556
2018-07-25T01:36:01.445Z,21.5555555556
2018-07-25T01:36:13.850Z,21.5555555556
2018-07-25T01:36:26.253Z,21.5555555556
2018-07-25T01:36:38.665Z,21.5
2018-07-25T01:36:51.064Z,21.5555555556
2018-07-25T01:37:03.437Z,21.5555555556
2018-07-25T01:37:15.824Z,21.5
2018-07-25T01:37:28.219Z,21.5555555556
2018-07-25T01:37:40.596Z,21.5
2018-07-25T01:37:52.982Z,21.5555555556
2018-07-25T01:38:05.367Z,21.5555555556
2018-07-25T01:38:17.750Z,21.5
2018-07-25T01:38:30.137Z,21.5
2018-07-25T01:38:42.521Z,21.5
2018-07-25T01:38:54.924Z,21.5
2018-07-25T01:39:07.324Z,21.5
2018-07-25T01:39:19.728Z,21.5
2018-07-25T01:39:32.113Z,21.5
2018-07-25T01:39:44.496Z,21.5
2018-07-25T01:39:56.872Z,21.5
2018-07-25T01:40:09.260Z,21.5
2018-07-25T01:40:21.661Z,21.4444444444
2018-07-25T01:40:34.321Z,21.5
2018-07-25T01:40:46.710Z,21.4444444444
2018-07-25T01:40:59.093Z,21.5
2018-07-25T01:41:11.487Z,21.4444444444
2018-07-25T01:41:23.881Z,21.4444444444
2018-07-25T01:41:36.436Z,21.4444444444
2018-07-25T01:41:48.825Z,21.4444444444
2018-07-25T01:42:01.209Z,21.4444444444
2018-07-25T01:42:13.615Z,21.4444444444
2018-07-25T01:42:25.997Z,21.4444444444
2018-07-25T01:42:38.389Z,21.4444444444
2018-07-25T01:42:50.780Z,21.4444444444
2018-07-25T01:43:03.188Z,21.4444444444
2018-07-25T01:43:15.575Z,21.4444444444
2018-07-25T01:43:27.962Z,21.4444444444
2018-07-25T01:43:40.342Z,21.3888888889
2018-07-25T01:43:52.739Z,21.4444444444
2018-07-25T01:44:05.140Z,21.3888888889
2018-07-25T01:44:17.540Z,21.3888888889
2018-07-25T01:44:30.059Z,21.3888888889
2018-07-25T01:44:42.451Z,21.3888888889
2018-07-25T01:44:54.840Z,21.3888888889
2018-07-25T01:45:07.240Z,21.3888888889
2018-07-25T01:45:19.637Z,21.3888888889
2018-07-25T01:45:32.017Z,21.3888888889
2018-07-25T01:45:44.421Z,21.3888888889
2018-07-25T01:45:56.801Z,21.3888888889
2018-07-25T01:46:09.188Z,21.3888888889
2018-07-25T01:46:21.574Z,21.3333333333
2018-07-25T01:46:33.962Z,21.3333333333
2018-07-25T01:46:46.359Z,21.3888888889
2018-07-25T01:46:58.747Z,21.3333333333
2018-07-25T01:47:11.147Z,21.3333333333
2018-07-25T01:47:23.596Z,21.3888888889
2018-07-25T01:47:35.991Z,21.3888888889
2018-07-25T01:47:48.371Z,21.3888888889
2018-07-25T01:48:00.743Z,21.3333333333
2018-07-25T01:48:13.133Z,21.3333333333
2018-07-25T01:48:25.551Z,21.3333333333
2018-07-25T01:48:37.950Z,21.3333333333
2018-07-25T01:48:50.501Z,21.3333333333
2018-07-25T01:49:02.928Z,21.3333333333
2018-07-25T01:49:15.328Z,21.3333333333
2018-07-25T01:49:27.718Z,21.3333333333
2018-07-25T01:49:40.115Z,21.3333333333
2018-07-25T01:49:52.508Z,21.3333333333
2018-07-25T01:50:04.913Z,21.3333333333
2018-07-25T01:50:17.297Z,21.3333333333
2018-07-25T01:50:29.683Z,21.3333333333
2018-07-25T01:50:42.071Z,21.3333333333
2018-07-25T01:50:54.449Z,21.3333333333
2018-07-25T01:51:06.840Z,21.3333333333
2018-07-25T01:51:19.238Z,21.2777777778
2018-07-25T01:51:31.621Z,21.3333333333
2018-07-25T01:51:44.006Z,21.3333333333
2018-07-25T01:51:56.400Z,21.3333333333
2018-07-25T01:52:08.839Z,21.2777777778
2018-07-25T01:52:21.233Z,21.3333333333
2018-07-25T01:52:33.645Z,21.2777777778
2018-07-25T01:52:46.020Z,21.3333333333
2018-07-25T01:52:58.403Z,21.3333333333
2018-07-25T01:53:10.781Z,21.2777777778
2018-07-25T01:53:23.180Z,21.3333333333
2018-07-25T01:53:35.578Z,21.3333333333
2018-07-25T01:53:47.954Z,21.3333333333
2018-07-25T01:54:00.365Z,21.3333333333
2018-07-25T01:54:12.760Z,21.3333333333
2018-07-25T01:54:25.157Z,21.3333333333
2018-07-25T01:54:37.566Z,21.3333333333
2018-07-25T01:54:49.964Z,21.3333333333
2018-07-25T01:55:02.492Z,21.3333333333
2018-07-25T01:55:14.901Z,21.3333333333
2018-07-25T01:55:27.296Z,21.3333333333
2018-07-25T01:55:39.677Z,21.3333333333
2018-07-25T01:55:52.073Z,21.3333333333
2018-07-25T01:56:04.474Z,21.3333333333
2018-07-25T01:56:16.926Z,21.3333333333
2018-07-25T01:56:29.322Z,21.3333333333
2018-07-25T01:56:41.712Z,21.3333333333
2018-07-25T01:56:54.096Z,21.3333333333
2018-07-25T01:57:06.500Z,21.3333333333
2018-07-25T01:57:18.875Z,21.3333333333
2018-07-25T01:57:31.263Z,21.3333333333
2018-07-25T01:57:43.638Z,21.3333333333
2018-07-25T01:57:56.028Z,21.3333333333
2018-07-25T01:58:08.461Z,21.3333333333
2018-07-25T01:58:20.904Z,21.3333333333
2018-07-25T01:58:33.340Z,21.3333333333
2018-07-25T01:58:45.729Z,21.3333333333
2018-07-25T01:58:58.099Z,21.3333333333
2018-07-25T01:59:10.482Z,21.3333333333
2018-07-25T01:59:22.896Z,21.3333333333
2018-07-25T01:59:35.286Z,21.3333333333
2018-07-25T01:59:47.665Z,21.3888888889
2018-07-25T02:00:00.197Z,21.3333333333
2018-07-25T02:00:12.628Z,21.3888888889
2018-07-25T02:00:25.019Z,21.3888888889
2018-07-25T02:00:37.589Z,21.3888888889
2018-07-25T02:00:50.034Z,21.3333333333
2018-07-25T02:01:02.424Z,21.3888888889
2018-07-25T02:01:15.080Z,21.3888888889
2018-07-25T02:01:28.115Z,21.3888888889
2018-07-25T02:01:40.981Z,21.3888888889
2018-07-25T02:01:53.451Z,21.3888888889
2018-07-25T02:02:05.997Z,21.3888888889
2018-07-25T02:02:18.388Z,21.3888888889
2018-07-25T02:02:30.858Z,21.3888888889
2018-07-25T02:02:43.254Z,21.3888888889
2018-07-25T02:02:55.688Z,21.3888888889
2018-07-25T02:03:08.096Z,21.3888888889
2018-07-25T02:03:20.508Z,21.3888888889
2018-07-25T02:03:32.913Z,21.4444444444
2018-07-25T02:03:45.367Z,21.3888888889
2018-07-25T02:03:57.772Z,21.4444444444
2018-07-25T02:04:10.225Z,21.3888888889
2018-07-25T02:04:22.611Z,21.3888888889
2018-07-25T02:04:35.031Z,21.3888888889
2018-07-25T02:04:47.449Z,21.4444444444
2018-07-25T02:04:59.829Z,21.4444444444
2018-07-25T02:05:12.235Z,21.3888888889
2018-07-25T02:05:24.619Z,21.3888888889
2018-07-25T02:05:37.097Z,21.4444444444
2018-07-25T02:05:49.499Z,21.4444444444
2018-07-25T02:06:02.006Z,21.4444444444
2018-07-25T02:06:14.411Z,21.4444444444
2018-07-25T02:06:26.801Z,21.4444444444
2018-07-25T02:06:39.203Z,21.4444444444
2018-07-25T02:06:51.601Z,21.4444444444
2018-07-25T02:07:04.010Z,21.4444444444
2018-07-25T02:07:16.428Z,21.4444444444
2018-07-25T02:07:28.837Z,21.4444444444
2018-07-25T02:07:41.268Z,21.5
2018-07-25T02:07:53.825Z,21.4444444444
2018-07-25T02:08:06.338Z,21.4444444444
2018-07-25T02:08:19.821Z,21.4444444444
2018-07-25T02:08:32.615Z,21.4444444444
2018-07-25T02:08:45.445Z,21.4444444444
2018-07-25T02:08:57.844Z,21.4444444444
2018-07-25T02:09:10.239Z,21.4444444444
2018-07-25T02:09:22.632Z,21.4444444444